createdAt,value
2023-04-21T00:01:40.329Z,7.30
2023-04-21T00:04:10.069Z,6.93
2023-04-21T00:06:38.168Z,6.53
2023-04-21T00:09:06.011Z,6.53
2023-04-21T00:11:34.229Z,6.85
2023-04-21T00:14:02.484Z,7.55
2023-04-21T00:16:31.650Z,8.07
2023-04-21T00:18:59.801Z,7.70
2023-04-21T00:21:28.207Z,7.10
2023-04-21T00:23:56.116Z,7.18
2023-04-21T00:26:24.702Z,7.43
2023-04-21T00:28:53.558Z,7.30
2023-04-21T00:31:22.018Z,6.78
2023-04-21T00:33:50.425Z,7.47
2023-04-21T00:36:18.817Z,6.82
2023-04-21T00:38:48.470Z,7.47
2023-04-21T00:41:16.726Z,7.53
2023-04-21T00:44:08.972Z,7.28
2023-04-21T00:46:38.840Z,6.95
2023-04-21T00:49:08.187Z,7.20
2023-04-21T00:51:38.882Z,7.65
2023-04-21T00:54:09.521Z,7.55
2023-04-21T00:56:37.950Z,7.38
2023-04-21T00:59:05.796Z,7.47
2023-04-21T01:01:37.545Z,6.57
2023-04-21T01:06:34.381Z,7.60
2023-04-21T01:09:04.902Z,6.68
2023-04-21T01:11:33.116Z,7.70
2023-04-21T01:14:01.581Z,7.20
2023-04-21T01:16:29.812Z,7.97
2023-04-21T01:19:01.161Z,7.72
2023-04-21T01:21:32.242Z,7.45
2023-04-21T01:24:02.398Z,7.20
2023-04-21T01:26:30.556Z,7.03
2023-04-21T01:28:58.658Z,6.85
2023-04-21T01:31:27.420Z,7.20
2023-04-21T01:33:55.621Z,6.45
2023-04-21T01:36:23.541Z,7.20
2023-04-21T01:38:53.715Z,6.63
2023-04-21T01:41:23.553Z,7.10
2023-04-21T01:43:51.590Z,6.47
2023-04-21T01:46:22.815Z,6.50
2023-04-21T01:48:51.544Z,6.30
2023-04-21T01:51:19.932Z,6.85
2023-04-21T01:53:48.299Z,6.18
2023-04-21T01:56:16.364Z,7.00
2023-04-21T01:58:44.392Z,6.43
2023-04-21T02:01:12.381Z,6.82
2023-04-21T02:03:40.803Z,6.47
2023-04-21T02:06:09.480Z,6.47
2023-04-21T02:08:37.710Z,6.90
2023-04-21T02:11:05.593Z,7.03
2023-04-21T02:13:33.541Z,6.10
2023-04-21T02:16:12.836Z,6.30
2023-04-21T02:18:42.671Z,6.22
2023-04-21T02:21:10.702Z,6.30
2023-04-21T02:23:38.764Z,5.80
2023-04-21T02:26:07.345Z,6.82
2023-04-21T02:28:35.447Z,6.35
2023-04-21T02:31:03.732Z,6.15
2023-04-21T02:33:35.556Z,5.82
2023-04-21T02:36:04.146Z,6.13
2023-04-21T02:38:31.997Z,5.45
2023-04-21T02:41:00.009Z,6.25
2023-04-21T02:43:27.974Z,6.15
2023-04-21T02:45:56.910Z,5.72
2023-04-21T02:48:24.922Z,6.40
2023-04-21T02:50:56.170Z,6.43
2023-04-21T02:53:23.981Z,5.60
2023-04-21T02:55:53.546Z,5.53
2023-04-21T02:58:21.477Z,6.13
2023-04-21T03:00:49.435Z,5.90
2023-04-21T03:03:17.676Z,6.07
2023-04-21T03:05:45.869Z,6.25
2023-04-21T03:08:14.161Z,6.10
2023-04-21T03:10:42.489Z,5.90
2023-04-21T03:13:10.385Z,6.05
2023-04-21T03:15:38.595Z,6.35
2023-04-21T03:18:06.696Z,6.15
2023-04-21T03:20:34.699Z,6.10
2023-04-21T03:23:02.534Z,6.70
2023-04-21T03:25:30.895Z,6.38
2023-04-21T03:27:58.974Z,7.00
2023-04-21T03:30:27.364Z,7.10
2023-04-21T03:32:59.070Z,7.22
2023-04-21T03:35:27.790Z,6.95
2023-04-21T03:37:55.999Z,8.32
2023-04-21T03:40:24.018Z,6.25
2023-04-21T03:42:52.120Z,6.72
2023-04-21T03:45:23.675Z,7.65
2023-04-21T03:47:56.060Z,6.38
2023-04-21T03:50:24.243Z,6.55
2023-04-21T03:52:52.135Z,7.07
2023-04-21T03:55:20.161Z,6.43
2023-04-21T03:57:48.275Z,6.53
2023-04-21T04:00:16.765Z,5.80
2023-04-21T04:02:46.600Z,7.07
2023-04-21T04:05:14.920Z,7.43
2023-04-21T04:07:42.853Z,7.55
2023-04-21T04:10:12.107Z,6.28
2023-04-21T04:12:40.202Z,6.70
2023-04-21T04:15:08.602Z,6.22
2023-04-21T04:17:36.743Z,7.03
2023-04-21T04:20:08.562Z,6.20
2023-04-21T04:22:37.380Z,6.85
2023-04-21T04:25:06.003Z,5.95
2023-04-21T04:27:34.763Z,6.38
2023-04-21T04:30:03.743Z,6.50
2023-04-21T04:32:33.838Z,5.70
2023-04-21T04:35:02.631Z,5.43
2023-04-21T04:37:31.826Z,6.07
2023-04-21T04:40:00.168Z,5.75
2023-04-21T04:42:29.073Z,5.97
2023-04-21T04:44:57.412Z,5.35
2023-04-21T04:47:25.688Z,4.85
2023-04-21T04:49:53.637Z,4.88
2023-04-21T04:52:21.550Z,5.53
2023-04-21T04:54:49.587Z,4.85
2023-04-21T04:57:17.665Z,5.43
2023-04-21T04:59:46.585Z,4.88
2023-04-21T05:02:14.965Z,5.15
2023-04-21T05:04:43.056Z,5.40
2023-04-21T05:07:11.868Z,5.60
2023-04-21T05:09:40.083Z,5.10
2023-04-21T05:12:08.673Z,5.72
2023-04-21T05:14:36.660Z,5.57
2023-04-21T05:17:04.797Z,5.32
2023-04-21T05:19:37.993Z,5.63
2023-04-21T05:22:09.224Z,4.85
2023-04-21T05:24:37.890Z,4.90
2023-04-21T05:27:06.995Z,5.45
2023-04-21T05:29:37.082Z,4.80
2023-04-21T05:32:05.749Z,4.55
2023-04-21T05:34:34.217Z,4.63
2023-04-21T05:37:02.395Z,4.68
2023-04-21T05:39:31.001Z,4.75
2023-04-21T05:41:59.371Z,4.38
2023-04-21T05:44:27.586Z,4.38
2023-04-21T05:46:55.997Z,3.95
2023-04-21T05:49:24.064Z,3.85
2023-04-21T05:51:52.288Z,3.92
2023-04-21T05:54:20.738Z,4.47
2023-04-21T05:56:48.919Z,3.70
2023-04-21T05:59:17.003Z,3.97
2023-04-21T06:01:45.463Z,4.10
2023-04-21T06:04:13.890Z,4.10
2023-04-21T06:06:42.258Z,4.38
2023-04-21T06:09:10.555Z,3.88
2023-04-21T06:11:38.943Z,3.78
2023-04-21T06:14:06.960Z,3.90
2023-04-21T06:16:35.249Z,3.80
2023-04-21T06:19:03.671Z,4.00
2023-04-21T06:21:33.653Z,3.25
2023-04-21T06:24:01.779Z,3.95
2023-04-21T06:26:30.770Z,4.20
2023-04-21T06:28:58.790Z,4.07
2023-04-21T06:31:27.301Z,3.92
2023-04-21T06:33:55.171Z,4.20
2023-04-21T06:36:23.367Z,3.80
2023-04-21T06:38:51.535Z,4.10
2023-04-21T06:41:19.453Z,3.70
2023-04-21T06:43:48.286Z,3.60
2023-04-21T06:46:16.475Z,3.67
2023-04-21T06:48:44.501Z,4.05
2023-04-21T06:51:12.462Z,3.80
2023-04-21T06:53:40.494Z,3.65
2023-04-21T06:56:08.326Z,4.05
2023-04-21T06:58:36.515Z,3.85
2023-04-21T07:01:04.770Z,3.65
2023-04-21T07:03:33.437Z,3.95
2023-04-21T07:06:02.036Z,4.07
2023-04-21T07:08:30.154Z,3.55
2023-04-21T07:10:58.749Z,3.88
2023-04-21T07:13:26.901Z,3.50
2023-04-21T07:15:56.066Z,3.50
2023-04-21T07:18:24.366Z,3.15
2023-04-21T07:20:52.546Z,3.35
2023-04-21T07:23:20.761Z,3.22
2023-04-21T07:25:49.112Z,3.25
2023-04-21T07:28:17.314Z,2.88
2023-04-21T07:30:46.494Z,3.50
2023-04-21T07:33:15.002Z,3.30
2023-04-21T07:35:44.702Z,3.40
2023-04-21T07:38:13.009Z,3.00
2023-04-21T07:40:40.877Z,3.28
2023-04-21T07:43:08.934Z,2.90
2023-04-21T07:45:37.033Z,4.05
2023-04-21T07:48:07.666Z,3.22
2023-04-21T07:50:36.649Z,3.33
2023-04-21T07:53:05.395Z,3.05
2023-04-21T07:55:34.449Z,3.10
2023-04-21T07:58:02.736Z,3.40
2023-04-21T08:00:31.239Z,3.40
2023-04-21T08:02:59.487Z,3.42
2023-04-21T08:05:31.779Z,3.13
2023-04-21T08:08:02.765Z,3.25
2023-04-21T08:10:30.945Z,3.08
2023-04-21T08:12:58.875Z,3.33
2023-04-21T08:15:26.841Z,2.92
2023-04-21T08:17:55.314Z,2.78
2023-04-21T08:20:23.724Z,2.63
2023-04-21T08:22:51.948Z,3.10
2023-04-21T08:25:20.256Z,2.75
2023-04-21T08:27:48.340Z,3.30
2023-04-21T08:30:16.652Z,2.58
2023-04-21T08:32:44.743Z,3.10
2023-04-21T08:35:12.888Z,2.88
2023-04-21T08:37:41.191Z,2.45
2023-04-21T08:40:09.872Z,2.83
2023-04-21T08:42:39.261Z,2.53
2023-04-21T08:45:10.468Z,2.47
2023-04-21T08:47:42.749Z,2.55
2023-04-21T08:50:14.988Z,2.90
2023-04-21T08:52:43.454Z,2.78
2023-04-21T08:55:13.724Z,2.90
2023-04-21T08:57:41.779Z,2.42
2023-04-21T09:00:10.750Z,2.45
2023-04-21T09:03:02.180Z,2.55
2023-04-21T09:05:34.089Z,2.40
2023-04-21T09:10:49.188Z,2.58
2023-04-21T09:13:19.383Z,2.15
2023-04-21T09:15:52.517Z,2.22
2023-04-21T09:18:27.471Z,2.30
2023-04-21T09:21:17.330Z,1.98
2023-04-21T09:23:51.174Z,2.10
2023-04-21T09:26:23.490Z,2.30
2023-04-21T09:28:54.189Z,2.25
2023-04-21T09:31:25.418Z,1.92
2023-04-21T09:36:32.160Z,2.53
2023-04-21T09:39:29.155Z,2.17
2023-04-21T09:41:51.199Z,2.40
2023-04-21T09:44:19.996Z,2.08
2023-04-21T09:46:51.383Z,2.20
2023-04-21T09:49:22.935Z,1.97
2023-04-21T09:54:31.923Z,2.28
2023-04-21T09:57:04.345Z,1.98
2023-04-21T09:59:46.198Z,2.00
2023-04-21T10:02:14.780Z,2.20
2023-04-21T10:04:44.011Z,2.20
2023-04-21T10:07:12.846Z,1.80
2023-04-21T10:09:56.600Z,1.95
2023-04-21T10:12:27.214Z,2.15
2023-04-21T10:14:57.332Z,2.00
2023-04-21T10:17:27.012Z,1.73
2023-04-21T10:19:59.526Z,2.30
2023-04-21T10:22:33.572Z,2.13
2023-04-21T10:25:04.740Z,2.10
2023-04-21T10:27:46.009Z,1.90
2023-04-21T10:30:26.866Z,2.05
2023-04-21T10:33:06.458Z,2.40
2023-04-21T10:35:58.533Z,2.10
2023-04-21T10:38:44.074Z,2.20
2023-04-21T10:41:32.359Z,1.88
2023-04-21T10:44:13.896Z,2.58
2023-04-21T10:46:48.305Z,2.10
2023-04-21T10:49:29.053Z,2.08
2023-04-21T10:52:00.471Z,1.80
2023-04-21T10:55:04.683Z,2.22
2023-04-21T10:57:35.328Z,2.28
2023-04-21T11:00:07.312Z,2.33
2023-04-21T11:02:39.649Z,2.00
2023-04-21T11:05:11.187Z,1.88
2023-04-21T11:07:39.924Z,2.30
2023-04-21T11:10:11.325Z,2.20
2023-04-21T11:15:11.980Z,2.10
2023-04-21T11:17:43.582Z,2.50
2023-04-21T11:20:12.033Z,2.05
2023-04-21T11:22:40.060Z,2.00
2023-04-21T11:25:19.070Z,2.17
2023-04-21T11:28:00.321Z,2.42
2023-04-21T11:30:35.664Z,2.25
2023-04-21T11:33:04.108Z,2.28
2023-04-21T11:35:32.594Z,2.50
2023-04-21T11:38:06.345Z,2.20
2023-04-21T11:40:51.363Z,2.40
2023-04-21T11:44:40.957Z,1.90
2023-04-21T11:47:23.259Z,2.30
2023-04-21T11:50:02.519Z,2.20
2023-04-21T11:52:33.457Z,2.05
2023-04-21T11:55:05.660Z,2.20
2023-04-21T11:57:34.564Z,2.08
2023-04-21T12:00:06.958Z,2.47
2023-04-21T12:02:35.695Z,2.10
2023-04-21T12:05:14.067Z,2.35
2023-04-21T12:07:48.923Z,2.33
2023-04-21T12:10:21.902Z,2.42
2023-04-21T12:12:51.544Z,2.30
2023-04-21T12:15:23.051Z,2.17
2023-04-21T12:20:25.329Z,2.00
2023-04-21T12:22:53.833Z,2.70
2023-04-21T12:25:21.832Z,2.30
2023-04-21T12:27:58.383Z,2.08
2023-04-21T12:30:26.665Z,2.67
2023-04-21T12:32:56.016Z,2.38
2023-04-21T12:35:24.464Z,2.33
2023-04-21T12:37:52.638Z,2.65
2023-04-21T12:40:20.881Z,2.58
2023-04-21T12:42:49.259Z,2.63
2023-04-21T12:45:17.569Z,2.15
2023-04-21T12:47:47.178Z,2.40
2023-04-21T12:50:16.586Z,2.60
2023-04-21T12:52:44.680Z,2.58
2023-04-21T12:55:13.749Z,2.40
2023-04-21T12:57:42.088Z,3.25
2023-04-21T13:00:13.134Z,2.42
2023-04-21T13:02:42.312Z,3.47
2023-04-21T13:05:12.498Z,2.80
2023-04-21T13:07:41.577Z,3.00
2023-04-21T13:10:10.674Z,3.38
2023-04-21T13:12:38.998Z,2.83
2023-04-21T13:15:08.208Z,2.92
2023-04-21T13:17:36.450Z,3.50
2023-04-21T13:20:05.623Z,4.57
2023-04-21T13:22:33.881Z,3.22
2023-04-21T13:25:02.641Z,3.15
2023-04-21T13:27:31.326Z,3.38
2023-04-21T13:29:59.574Z,3.22
2023-04-21T13:32:28.016Z,3.08
2023-04-21T13:34:56.812Z,2.85
2023-04-21T13:37:25.008Z,2.95
2023-04-21T13:39:53.543Z,2.70
2023-04-21T13:42:22.007Z,3.00
2023-04-21T13:44:50.285Z,3.15
2023-04-21T13:47:18.525Z,3.10
2023-04-21T13:49:47.078Z,2.80
2023-04-21T13:52:15.037Z,3.10
2023-04-21T13:54:43.436Z,3.05
2023-04-21T13:57:11.824Z,2.90
2023-04-21T13:59:41.761Z,2.92
2023-04-21T14:02:10.349Z,2.97
2023-04-21T14:04:39.025Z,2.78
2023-04-21T14:07:08.319Z,3.08
2023-04-21T14:09:36.712Z,3.08
2023-04-21T14:12:05.448Z,2.90
2023-04-21T14:17:04.800Z,3.35
2023-04-21T14:19:33.010Z,3.20
2023-04-21T14:22:01.631Z,3.15
2023-04-21T14:24:30.740Z,2.80
2023-04-21T14:26:59.702Z,2.60
2023-04-21T14:29:27.915Z,2.83
2023-04-21T14:31:57.964Z,3.10
2023-04-21T14:34:26.841Z,4.07
2023-04-21T14:36:55.260Z,3.90
2023-04-21T14:39:24.007Z,3.22
2023-04-21T14:41:53.071Z,3.17
2023-04-21T14:44:21.360Z,3.88
2023-04-21T14:47:00.991Z,2.70
2023-04-21T14:49:34.608Z,3.13
2023-04-21T14:52:03.913Z,2.92
2023-04-21T14:54:32.371Z,2.67
2023-04-21T14:57:17.783Z,2.60
2023-04-21T14:59:50.719Z,2.85
2023-04-21T15:02:21.640Z,2.25
2023-04-21T15:07:23.967Z,2.40
2023-04-21T15:09:53.338Z,2.60
2023-04-21T15:12:22.055Z,3.13
2023-04-21T15:14:50.151Z,2.28
2023-04-21T15:17:18.521Z,2.63
2023-04-21T15:19:46.562Z,2.55
2023-04-21T15:22:15.546Z,3.03
2023-04-21T15:24:43.848Z,2.65
2023-04-21T15:27:11.987Z,2.55
2023-04-21T15:29:40.582Z,3.05
2023-04-21T15:32:09.042Z,2.88
2023-04-21T15:34:37.401Z,2.35
2023-04-21T15:37:05.528Z,3.13
2023-04-21T15:39:34.369Z,2.60
2023-04-21T15:42:04.587Z,2.53
2023-04-21T15:44:34.226Z,2.42
2023-04-21T15:47:03.225Z,2.53
2023-04-21T15:49:31.323Z,2.80
2023-04-21T15:51:59.453Z,2.72
2023-04-21T15:54:27.805Z,2.95
2023-04-21T15:56:55.933Z,2.60
2023-04-21T15:59:25.895Z,2.65
2023-04-21T16:01:55.012Z,2.63
2023-04-21T16:04:23.738Z,2.47
2023-04-21T16:06:51.935Z,2.45
2023-04-21T16:09:22.024Z,2.70
2023-04-21T16:11:50.712Z,2.47
2023-04-21T16:14:19.477Z,2.90
2023-04-21T16:16:47.756Z,2.72
2023-04-21T16:19:16.492Z,2.53
2023-04-21T16:21:45.459Z,2.47
2023-04-21T16:24:13.846Z,2.28
2023-04-21T16:26:41.995Z,2.53
2023-04-21T16:29:10.221Z,1.83
2023-04-21T16:31:38.756Z,2.20
2023-04-21T16:34:07.000Z,2.20
2023-04-21T16:36:35.236Z,2.20
2023-04-21T16:39:03.377Z,2.03
2023-04-21T16:41:31.521Z,1.83
2023-04-21T16:43:59.732Z,1.90
2023-04-21T16:46:28.558Z,1.83
2023-04-21T16:48:58.023Z,1.77
2023-04-21T16:51:28.679Z,1.98
2023-04-21T16:53:57.184Z,1.67
2023-04-21T16:56:25.733Z,1.77
2023-04-21T16:58:54.029Z,1.98
2023-04-21T17:01:22.126Z,1.70
2023-04-21T17:03:50.510Z,1.92
2023-04-21T17:06:21.312Z,1.85
2023-04-21T17:08:50.197Z,1.63
2023-04-21T17:11:18.409Z,1.98
2023-04-21T17:13:46.419Z,1.80
2023-04-21T17:16:15.084Z,2.15
2023-04-21T17:18:43.134Z,2.28
2023-04-21T17:21:12.682Z,2.42
2023-04-21T17:23:41.372Z,2.40
2023-04-21T17:26:12.245Z,2.55
2023-04-21T17:31:15.673Z,2.40
2023-04-21T17:33:45.794Z,2.60
2023-04-21T17:36:14.191Z,2.33
2023-04-21T17:38:43.277Z,2.38
2023-04-21T17:41:11.658Z,2.55
2023-04-21T17:43:40.167Z,2.83
2023-04-21T17:46:08.442Z,2.38
2023-04-21T17:48:37.469Z,2.78
2023-04-21T17:51:06.195Z,2.50
2023-04-21T17:53:34.101Z,2.75
2023-04-21T17:56:02.920Z,2.97
2023-04-21T17:58:31.206Z,3.00
2023-04-21T18:00:59.511Z,3.00
2023-04-21T18:03:28.570Z,4.32
2023-04-21T18:05:57.577Z,4.15
2023-04-21T18:08:25.749Z,2.78
2023-04-21T18:10:55.696Z,3.92
2023-04-21T18:13:24.241Z,18.00
2023-04-21T18:15:52.329Z,17.15
2023-04-21T18:18:21.272Z,13.63
2023-04-21T18:20:49.498Z,7.05
2023-04-21T18:23:17.665Z,7.47
2023-04-21T18:25:47.235Z,6.60
2023-04-21T18:28:18.601Z,7.10
2023-04-21T18:30:47.316Z,7.93
2023-04-21T18:33:15.895Z,9.07
2023-04-21T18:35:44.226Z,9.40
2023-04-21T18:38:13.592Z,9.70
2023-04-21T18:40:41.894Z,10.10
2023-04-21T18:43:11.179Z,9.02
2023-04-21T18:45:39.564Z,9.05
2023-04-21T18:48:08.105Z,11.00
2023-04-21T18:50:40.420Z,11.15
2023-04-21T18:53:09.568Z,12.63
2023-04-21T18:55:38.128Z,10.85
2023-04-21T18:58:06.758Z,12.18
2023-04-21T19:00:39.339Z,12.88
2023-04-21T19:03:08.855Z,17.60
2023-04-21T19:05:40.725Z,14.85
2023-04-21T19:08:10.357Z,13.52
2023-04-21T19:10:38.901Z,9.63
2023-04-21T19:13:07.224Z,11.35
2023-04-21T19:16:28.358Z,12.13
2023-04-21T19:18:59.853Z,7.83
2023-04-21T19:21:28.433Z,8.07
2023-04-21T19:23:58.019Z,8.77
2023-04-21T19:26:26.670Z,9.13
2023-04-21T19:28:55.553Z,10.50
2023-04-21T19:31:24.827Z,10.60
2023-04-21T19:33:53.510Z,10.93
2023-04-21T19:36:21.903Z,12.15
2023-04-21T19:38:50.687Z,11.15
2023-04-21T19:41:19.299Z,10.88
2023-04-21T19:43:47.615Z,10.50
2023-04-21T19:46:16.766Z,10.30
2023-04-21T19:48:45.653Z,11.63
2023-04-21T19:51:13.798Z,11.75
2023-04-21T19:53:49.422Z,11.98
2023-04-21T19:56:21.961Z,13.82
2023-04-21T19:58:50.819Z,13.70
2023-04-21T20:01:19.603Z,13.50
2023-04-21T20:03:48.042Z,15.05
2023-04-21T20:06:20.423Z,11.85
2023-04-21T20:08:49.054Z,11.77
2023-04-21T20:11:17.487Z,12.02
2023-04-21T20:13:46.238Z,11.20
2023-04-21T20:16:14.575Z,12.18
2023-04-21T20:18:43.959Z,13.30
2023-04-21T20:21:12.926Z,12.90
2023-04-21T20:23:41.127Z,12.55
2023-04-21T20:26:09.861Z,12.32
2023-04-21T20:28:38.232Z,14.48
2023-04-21T20:31:06.318Z,14.38
2023-04-21T20:33:34.602Z,13.18
2023-04-21T20:36:07.738Z,12.35
2023-04-21T20:38:36.968Z,12.07
2023-04-21T20:41:05.240Z,12.90
2023-04-21T20:43:33.743Z,11.98
2023-04-21T20:46:03.486Z,12.18
2023-04-21T20:48:32.382Z,14.35
2023-04-21T20:51:00.686Z,12.40
2023-04-21T20:53:29.285Z,11.93
2023-04-21T20:55:57.530Z,12.25
2023-04-21T20:58:25.794Z,12.80
2023-04-21T21:00:54.359Z,13.82
2023-04-21T21:03:22.596Z,12.90
2023-04-21T21:05:51.727Z,13.50
2023-04-21T21:08:19.960Z,12.32
2023-04-21T21:10:48.121Z,13.80
2023-04-21T21:13:16.386Z,13.05
2023-04-21T21:15:44.756Z,12.88
2023-04-21T21:18:13.201Z,14.20
2023-04-21T21:20:41.682Z,12.85
2023-04-21T21:23:09.803Z,12.32
2023-04-21T21:25:38.226Z,12.30
2023-04-21T21:28:06.856Z,12.73
2023-04-21T21:30:35.088Z,12.50
2023-04-21T21:33:03.200Z,13.07
2023-04-21T21:35:33.144Z,12.60
2023-04-21T21:38:01.540Z,14.75
2023-04-21T21:40:30.588Z,14.75
2023-04-21T21:42:58.911Z,14.82
2023-04-21T21:45:27.061Z,13.90
2023-04-21T21:47:55.213Z,14.02
2023-04-21T21:50:23.682Z,13.88
2023-04-21T21:52:51.868Z,14.48
2023-04-21T21:55:20.035Z,13.32
2023-04-21T21:57:48.773Z,13.82
2023-04-21T22:00:19.020Z,13.30
2023-04-21T22:02:47.737Z,15.95
2023-04-21T22:05:16.274Z,15.23
2023-04-21T22:07:45.645Z,14.77
2023-04-21T22:10:14.187Z,14.48
2023-04-21T22:12:42.571Z,18.67
2023-04-21T22:15:11.122Z,16.48
2023-04-21T22:17:39.304Z,15.25
2023-04-21T22:20:08.503Z,16.17
2023-04-21T22:22:36.903Z,16.45
2023-04-21T22:25:06.086Z,16.13
2023-04-21T22:27:34.245Z,15.43
2023-04-21T22:30:04.466Z,15.90
2023-04-21T22:32:32.907Z,15.13
2023-04-21T22:35:01.602Z,16.15
2023-04-21T22:37:29.709Z,16.27
2023-04-21T22:39:57.962Z,15.95
2023-04-21T22:42:26.508Z,17.40
2023-04-21T22:44:54.750Z,15.90
2023-04-21T22:47:23.566Z,15.52
2023-04-21T22:49:53.718Z,15.77
2023-04-21T22:52:22.176Z,16.80
2023-04-21T22:54:50.270Z,17.25
2023-04-21T22:57:18.922Z,17.80
2023-04-21T22:59:47.055Z,16.83
2023-04-21T23:02:15.800Z,16.83
2023-04-21T23:04:47.547Z,16.05
2023-04-21T23:07:16.701Z,15.73
2023-04-21T23:09:44.678Z,15.80
2023-04-21T23:12:13.273Z,15.57
2023-04-21T23:14:41.542Z,17.50
2023-04-21T23:17:09.611Z,16.23
2023-04-21T23:19:38.879Z,16.17
2023-04-21T23:22:07.533Z,19.13
2023-04-21T23:24:36.096Z,15.15
2023-04-21T23:27:04.842Z,15.80
2023-04-21T23:29:32.948Z,16.35
2023-04-21T23:32:01.072Z,15.43
2023-04-21T23:34:29.403Z,16.00
2023-04-21T23:36:57.709Z,15.80
2023-04-21T23:39:25.939Z,15.73
2023-04-21T23:41:54.584Z,15.05
2023-04-21T23:44:22.683Z,14.32
2023-04-21T23:46:51.528Z,16.02
2023-04-21T23:49:19.732Z,14.15
2023-04-21T23:51:48.874Z,14.82
2023-04-21T23:54:16.989Z,14.77
2023-04-21T23:56:45.795Z,14.68
2023-04-21T23:59:13.735Z,15.32
